createdAt,value
2024-01-11T00:04:07.163Z,9.30
2024-01-11T00:09:09.514Z,9.65
2024-01-11T00:14:12.044Z,8.80
2024-01-11T00:19:14.398Z,9.77
2024-01-11T00:24:17.181Z,9.13
2024-01-11T00:29:19.435Z,9.48
2024-01-11T00:34:22.878Z,9.15
2024-01-11T00:39:25.571Z,9.85
2024-01-11T00:44:27.840Z,9.52
2024-01-11T00:49:30.143Z,9.63
2024-01-11T00:54:32.715Z,9.77
2024-01-11T00:59:34.963Z,9.63
2024-01-11T01:04:40.421Z,9.55
2024-01-11T01:09:42.817Z,10.52
2024-01-11T01:14:45.074Z,10.02
2024-01-11T01:19:47.288Z,10.48
2024-01-11T01:24:49.496Z,9.18
2024-01-11T01:29:51.768Z,10.18
2024-01-11T01:34:54.020Z,9.93
2024-01-11T01:39:56.238Z,10.10
2024-01-11T01:44:58.433Z,9.93
2024-01-11T01:50:00.756Z,10.43
2024-01-11T01:55:05.526Z,10.18
2024-01-11T02:00:13.822Z,10.30
2024-01-11T02:05:17.747Z,9.82
2024-01-11T02:10:20.563Z,10.15
2024-01-11T02:15:23.480Z,10.75
2024-01-11T02:20:25.778Z,10.65
2024-01-11T02:25:28.084Z,9.85
2024-01-11T02:30:30.358Z,10.25
2024-01-11T02:35:32.962Z,11.07
2024-01-11T02:40:36.496Z,11.43
2024-01-11T02:45:39.034Z,11.63
2024-01-11T02:50:41.206Z,11.40
2024-01-11T02:55:43.511Z,12.45
2024-01-11T03:00:45.751Z,11.43
2024-01-11T03:05:48.012Z,12.10
2024-01-11T03:10:50.276Z,11.60
2024-01-11T03:15:52.330Z,11.70
2024-01-11T03:20:54.658Z,11.98
2024-01-11T03:25:56.796Z,11.93
2024-01-11T03:30:58.955Z,11.73
2024-01-11T03:36:01.024Z,11.80
2024-01-11T03:41:03.932Z,11.77
2024-01-11T03:46:06.107Z,11.50
2024-01-11T03:51:08.285Z,10.73
2024-01-11T03:56:11.337Z,11.73
2024-01-11T04:01:13.528Z,11.80
2024-01-11T04:06:23.654Z,11.38
2024-01-11T04:11:29.504Z,11.85
2024-01-11T04:16:31.751Z,11.63
2024-01-11T04:21:33.891Z,11.07
2024-01-11T04:26:36.135Z,11.10
2024-01-11T04:31:38.233Z,10.30
2024-01-11T04:36:40.778Z,9.88
2024-01-11T04:41:43.050Z,11.13
2024-01-11T04:46:45.170Z,9.82
2024-01-11T04:51:47.240Z,10.90
2024-01-11T04:56:49.435Z,10.40
2024-01-11T05:01:51.559Z,10.90
2024-01-11T05:06:53.926Z,11.15
2024-01-11T05:11:56.004Z,10.27
2024-01-11T05:16:58.266Z,10.77
2024-01-11T05:22:00.467Z,10.23
2024-01-11T05:27:02.616Z,10.73
2024-01-11T05:32:05.234Z,11.18
2024-01-11T05:37:07.428Z,11.05
2024-01-11T05:42:09.561Z,11.35
2024-01-11T05:47:11.669Z,11.48
2024-01-11T05:52:13.834Z,12.15
2024-01-11T05:57:16.129Z,11.63
2024-01-11T06:02:18.500Z,11.07
2024-01-11T06:07:20.655Z,11.63
2024-01-11T06:12:22.744Z,11.80
2024-01-11T06:17:25.175Z,11.52
2024-01-11T06:22:27.339Z,11.27
2024-01-11T06:27:32.110Z,11.73
2024-01-11T06:32:34.326Z,10.80
2024-01-11T06:37:36.506Z,11.40
2024-01-11T06:42:38.644Z,11.07
2024-01-11T06:47:40.839Z,11.10
2024-01-11T06:52:43.037Z,10.70
2024-01-11T06:57:49.296Z,11.90
2024-01-11T07:02:54.808Z,11.50
2024-01-11T07:12:59.243Z,10.38
2024-01-11T07:18:01.459Z,10.32
2024-01-11T07:23:03.787Z,9.65
2024-01-11T07:28:06.088Z,9.07
2024-01-11T07:33:09.575Z,10.30
2024-01-11T07:38:12.836Z,10.18
2024-01-11T07:43:15.692Z,9.73
2024-01-11T07:48:17.976Z,9.15
2024-01-11T07:53:20.167Z,9.38
2024-01-11T07:58:22.257Z,9.60
2024-01-11T08:03:24.560Z,9.20
2024-01-11T08:08:27.416Z,9.25
2024-01-11T08:13:32.229Z,9.13
2024-01-11T08:18:34.450Z,9.27
2024-01-11T08:23:36.759Z,9.80
2024-01-11T08:28:38.867Z,10.32
2024-01-11T08:33:41.669Z,9.00
2024-01-11T08:38:44.083Z,9.52
2024-01-11T08:43:46.272Z,9.48
2024-01-11T08:48:48.531Z,9.15
2024-01-11T08:53:50.749Z,9.07
2024-01-11T08:58:53.201Z,9.13
2024-01-11T09:03:55.365Z,8.68
2024-01-11T09:08:57.504Z,8.20
2024-01-11T09:14:00.643Z,8.57
2024-01-11T09:19:02.837Z,8.73
2024-01-11T09:24:05.572Z,9.10
2024-01-11T09:29:07.814Z,8.85
2024-01-11T09:34:10.142Z,8.13
2024-01-11T09:39:14.452Z,7.95
2024-01-11T09:44:16.788Z,8.18
2024-01-11T09:49:22.239Z,8.15
2024-01-11T09:54:26.159Z,8.35
2024-01-11T09:59:28.985Z,8.15
2024-01-11T10:04:31.313Z,8.05
2024-01-11T10:09:33.445Z,7.95
2024-01-11T10:14:35.661Z,7.32
2024-01-11T10:19:38.053Z,8.30
2024-01-11T10:24:40.842Z,8.18
2024-01-11T10:29:45.501Z,8.18
2024-01-11T10:34:47.672Z,8.20
2024-01-11T10:39:51.973Z,7.25
2024-01-11T10:44:59.427Z,7.30
2024-01-11T10:50:05.744Z,7.82
2024-01-11T10:55:08.483Z,7.60
2024-01-11T11:00:13.627Z,6.80
2024-01-11T11:05:18.261Z,5.75
2024-01-11T11:10:21.703Z,5.10
2024-01-11T11:15:25.149Z,6.82
2024-01-11T11:20:29.213Z,6.45
2024-01-11T11:25:32.126Z,6.60
2024-01-11T11:30:37.795Z,6.72
2024-01-11T11:35:40.090Z,7.20
2024-01-11T11:40:46.150Z,6.97
2024-01-11T11:45:49.539Z,7.45
2024-01-11T11:51:12.985Z,6.60
2024-01-11T11:56:18.338Z,6.18
2024-01-11T12:01:20.626Z,4.50
2024-01-11T12:06:28.655Z,6.25
2024-01-11T12:11:32.208Z,6.53
2024-01-11T12:16:34.396Z,7.53
2024-01-11T12:21:36.577Z,7.15
2024-01-11T12:26:39.474Z,7.28
2024-01-11T12:31:41.709Z,7.38
2024-01-11T12:36:44.235Z,6.70
2024-01-11T12:41:46.492Z,6.55
2024-01-11T12:46:53.780Z,7.32
2024-01-11T12:51:55.940Z,7.25
2024-01-11T12:56:58.553Z,6.50
2024-01-11T13:02:01.059Z,6.95
2024-01-11T13:07:03.264Z,7.07
2024-01-11T13:12:06.181Z,7.40
2024-01-11T13:17:09.012Z,6.97
2024-01-11T13:22:11.252Z,7.40
2024-01-11T13:27:13.406Z,6.43
2024-01-11T13:32:15.879Z,7.55
2024-01-11T13:37:18.493Z,6.57
2024-01-11T13:42:20.573Z,6.80
2024-01-11T13:47:22.781Z,5.90
2024-01-11T13:52:24.936Z,6.13
2024-01-11T13:57:26.990Z,6.00
2024-01-11T14:02:29.107Z,6.50
2024-01-11T14:07:31.809Z,6.20
2024-01-11T14:12:34.414Z,5.75
2024-01-11T14:17:36.610Z,6.25
2024-01-11T14:22:38.954Z,6.55
2024-01-11T14:27:42.397Z,6.38
2024-01-11T14:32:45.127Z,5.90
2024-01-11T14:37:48.929Z,5.95
2024-01-11T14:42:51.825Z,5.97
2024-01-11T14:47:54.035Z,5.53
2024-01-11T14:52:56.172Z,6.32
2024-01-11T14:57:59.550Z,6.35
2024-01-11T15:03:03.494Z,6.82
2024-01-11T15:08:06.259Z,6.65
2024-01-11T15:13:08.317Z,6.40
2024-01-11T15:18:10.571Z,6.68
2024-01-11T15:23:12.879Z,7.05
2024-01-11T15:28:14.993Z,8.15
2024-01-11T15:33:17.118Z,7.07
2024-01-11T15:38:19.450Z,7.90
2024-01-11T15:43:21.477Z,8.05
2024-01-11T15:48:23.708Z,7.82
2024-01-11T15:53:25.899Z,7.93
2024-01-11T15:58:27.937Z,8.00
2024-01-11T16:03:30.120Z,7.32
2024-01-11T16:08:32.206Z,7.20
2024-01-11T16:13:34.251Z,7.13
2024-01-11T16:18:38.316Z,6.85
2024-01-11T16:23:40.472Z,7.68
2024-01-11T16:28:42.554Z,6.68
2024-01-11T16:33:45.124Z,6.80
2024-01-11T16:38:47.619Z,6.65
2024-01-11T16:43:49.768Z,6.50
2024-01-11T16:48:52.426Z,6.22
2024-01-11T16:53:54.728Z,6.32
2024-01-11T16:58:56.889Z,6.45
2024-01-11T17:04:00.526Z,7.15
2024-01-11T17:09:04.015Z,6.70
2024-01-11T17:14:06.328Z,8.07
2024-01-11T17:19:08.478Z,8.20
2024-01-11T17:24:10.578Z,8.38
2024-01-11T17:29:15.356Z,9.43
2024-01-11T17:34:17.626Z,9.20
2024-01-11T17:39:19.768Z,9.35
2024-01-11T17:44:23.431Z,9.50
2024-01-11T17:49:25.533Z,9.63
2024-01-11T17:54:27.656Z,8.90
2024-01-11T17:59:30.190Z,8.68
2024-01-11T18:04:32.512Z,8.23
2024-01-11T18:09:37.469Z,8.63
2024-01-11T18:14:40.744Z,8.97
2024-01-11T18:19:43.569Z,9.52
2024-01-11T18:24:48.680Z,9.90
2024-01-11T18:29:50.930Z,10.00
2024-01-11T18:34:53.252Z,9.80
2024-01-11T18:39:55.393Z,10.15
2024-01-11T18:44:59.127Z,9.48
2024-01-11T18:50:02.968Z,8.60
2024-01-11T18:55:12.973Z,8.63
2024-01-11T19:00:20.725Z,8.20
2024-01-11T19:05:24.257Z,8.63
2024-01-11T19:10:27.621Z,8.80
2024-01-11T19:15:30.054Z,8.55
2024-01-11T19:20:32.859Z,7.85
2024-01-11T19:25:35.293Z,7.68
2024-01-11T19:30:38.659Z,8.38
2024-01-11T19:35:41.512Z,8.27
2024-01-11T19:40:43.637Z,9.15
2024-01-11T19:45:47.568Z,8.40
2024-01-11T19:50:49.736Z,8.63
2024-01-11T19:55:51.804Z,8.50
2024-01-11T20:00:53.969Z,8.85
2024-01-11T20:05:56.386Z,8.52
2024-01-11T20:10:58.571Z,9.00
2024-01-11T20:16:01.132Z,8.88
2024-01-11T20:21:03.720Z,7.18
2024-01-11T20:26:06.220Z,7.43
2024-01-11T20:31:10.535Z,7.15
2024-01-11T20:36:12.682Z,7.50
2024-01-11T20:41:15.930Z,6.75
2024-01-11T20:46:24.373Z,5.80
2024-01-11T20:51:27.690Z,6.10
2024-01-11T20:56:31.682Z,5.38
2024-01-11T21:01:33.906Z,5.38
2024-01-11T21:06:36.392Z,5.30
2024-01-11T21:11:38.677Z,4.80
2024-01-11T21:16:40.874Z,4.45
2024-01-11T21:21:45.063Z,4.53
2024-01-11T21:26:47.447Z,4.28
2024-01-11T21:31:49.682Z,4.18
2024-01-11T21:36:51.772Z,4.20
2024-01-11T21:41:53.894Z,4.18
2024-01-11T21:46:55.976Z,4.38
2024-01-11T21:51:58.092Z,4.55
2024-01-11T21:57:00.166Z,3.95
2024-01-11T22:02:02.271Z,3.97
2024-01-11T22:07:04.554Z,3.92
2024-01-11T22:12:07.201Z,3.45
2024-01-11T22:17:09.655Z,2.97
2024-01-11T22:22:11.784Z,2.85
2024-01-11T22:27:13.873Z,2.92
2024-01-11T22:32:16.100Z,2.60
2024-01-11T22:37:18.868Z,2.78
2024-01-11T22:42:20.968Z,2.55
2024-01-11T22:47:23.855Z,2.38
2024-01-11T22:52:26.009Z,2.20
2024-01-11T22:57:28.121Z,2.53
2024-01-11T23:02:30.159Z,2.50
2024-01-11T23:07:32.379Z,2.53
2024-01-11T23:12:34.801Z,2.40
2024-01-11T23:17:37.048Z,2.30
2024-01-11T23:22:39.620Z,2.03
2024-01-11T23:27:41.828Z,2.28
2024-01-11T23:32:44.049Z,1.70
2024-01-11T23:37:48.155Z,1.45
2024-01-11T23:42:50.451Z,1.70
2024-01-11T23:47:52.811Z,1.70
2024-01-11T23:52:55.027Z,1.70
2024-01-11T23:57:57.094Z,1.50
